createdAt,value
2022-08-16T00:03:03.219Z,99217.28
2022-08-16T00:05:48.278Z,99212.34
2022-08-16T00:08:36.844Z,99181.88
2022-08-16T00:12:00.286Z,99205.75
2022-08-16T00:15:11.402Z,99209.56
2022-08-16T00:18:22.090Z,99194.50
2022-08-16T00:21:32.832Z,99192.75
2022-08-16T00:27:41.861Z,99174.00
2022-08-16T00:31:04.524Z,99168.69
2022-08-16T00:34:43.392Z,99174.59
2022-08-16T00:38:01.458Z,99166.97
2022-08-16T00:51:40.952Z,99148.78
2022-08-16T01:09:12.932Z,99138.75
2022-08-16T01:12:02.333Z,99151.09
2022-08-16T01:18:40.819Z,99158.63
2022-08-16T01:22:48.221Z,99169.09
2022-08-16T02:07:17.836Z,99102.06
2022-08-16T02:26:34.476Z,99084.00
2022-08-16T02:36:00.530Z,99062.28
2022-08-16T02:39:16.972Z,99044.28
2022-08-16T02:42:53.978Z,99011.72
2022-08-16T02:45:52.632Z,99028.88
2022-08-16T02:57:12.351Z,99044.59
2022-08-16T03:02:47.203Z,99052.91
2022-08-16T03:09:04.878Z,99054.59
2022-08-16T03:12:18.221Z,99056.03
2022-08-16T03:19:25.637Z,99048.31
2022-08-16T03:22:56.565Z,99004.19
2022-08-16T03:29:20.395Z,99063.44
2022-08-16T03:32:37.942Z,99044.84
2022-08-16T03:35:46.652Z,99042.50
2022-08-16T03:45:13.053Z,99034.88
2022-08-16T03:51:26.988Z,99035.53
2022-08-16T03:57:52.303Z,99030.19
2022-08-16T04:01:03.427Z,99036.44
2022-08-16T04:11:56.113Z,99028.53
2022-08-16T04:21:29.336Z,99035.47
2022-08-16T04:35:20.359Z,99006.44
2022-08-16T04:41:56.596Z,99008.78
2022-08-16T04:45:15.789Z,99003.63
2022-08-16T04:48:40.473Z,98998.34
2022-08-16T04:52:02.661Z,98999.28
2022-08-16T05:05:17.679Z,98983.66
2022-08-16T05:08:29.353Z,98959.00
2022-08-16T05:21:09.492Z,98961.09
2022-08-16T05:24:32.009Z,98976.94
2022-08-16T05:34:37.036Z,98969.06
2022-08-16T05:38:32.493Z,98972.66
2022-08-16T05:44:56.027Z,98953.47
2022-08-16T05:55:16.948Z,98957.09
2022-08-16T05:58:32.724Z,98960.94
2022-08-16T06:09:15.066Z,98922.03
2022-08-16T06:12:12.328Z,98904.81
2022-08-16T06:15:19.579Z,98928.16
2022-08-16T06:18:55.883Z,98914.09
2022-08-16T06:22:38.800Z,98916.00
2022-08-16T06:28:43.110Z,98919.81
2022-08-16T06:32:43.162Z,98924.25
2022-08-16T06:36:59.328Z,98931.84
2022-08-16T06:41:02.062Z,98926.88
2022-08-16T06:43:57.502Z,98940.53
2022-08-16T06:46:55.632Z,98928.88
2022-08-16T06:49:52.725Z,98958.56
2022-08-16T06:52:58.271Z,98950.59
2022-08-16T06:56:01.483Z,98940.00
2022-08-16T06:59:00.769Z,98921.56
2022-08-16T07:01:54.954Z,98905.91
2022-08-16T07:09:21.730Z,98943.19
2022-08-16T07:20:35.038Z,98944.16
2022-08-16T07:24:06.148Z,98933.81
2022-08-16T07:27:55.859Z,98930.00
2022-08-16T07:31:20.811Z,98899.13
2022-08-16T07:36:58.835Z,98922.22
2022-08-16T07:39:33.727Z,98935.44
2022-08-16T07:42:38.205Z,98938.69
2022-08-16T07:45:36.373Z,98921.25
2022-08-16T07:51:54.317Z,98925.09
2022-08-16T07:55:01.352Z,98932.94
2022-08-16T07:59:45.537Z,98927.16
2022-08-16T08:02:19.812Z,98916.59
2022-08-16T08:05:28.195Z,98914.31
2022-08-16T08:12:10.131Z,98901.94
2022-08-16T08:15:11.178Z,98909.25
2022-08-16T08:18:28.890Z,98916.25
2022-08-16T08:21:59.159Z,98920.00
2022-08-16T08:25:03.797Z,98925.00
2022-08-16T08:28:23.899Z,98910.81
2022-08-16T08:31:39.623Z,98884.22
2022-08-16T08:37:56.685Z,98948.44
2022-08-16T08:40:43.632Z,98949.78
2022-08-16T08:43:43.731Z,98944.22
2022-08-16T08:50:01.248Z,98979.13
2022-08-16T08:52:48.215Z,98967.91
2022-08-16T08:55:26.749Z,98948.59
2022-08-16T08:58:22.798Z,98982.69
2022-08-16T09:01:10.238Z,98976.84
2022-08-16T09:04:03.254Z,98974.41
2022-08-16T09:07:09.083Z,98986.28
2022-08-16T09:10:22.749Z,98978.34
2022-08-16T09:13:11.750Z,98988.16
2022-08-16T09:16:00.243Z,98995.16
2022-08-16T09:18:49.492Z,99001.44
2022-08-16T09:21:38.725Z,99005.69
2022-08-16T09:24:51.896Z,99012.84
2022-08-16T09:27:56.516Z,99012.84
2022-08-16T09:30:33.374Z,99015.28
2022-08-16T09:33:21.361Z,99010.09
2022-08-16T09:36:06.966Z,99012.06
2022-08-16T09:38:52.587Z,98951.13
2022-08-16T09:41:53.861Z,99027.31
2022-08-16T09:45:10.847Z,99020.88
2022-08-16T09:47:57.400Z,99025.78
2022-08-16T09:51:01.760Z,99024.28
2022-08-16T09:54:09.822Z,99031.06
2022-08-16T09:57:19.068Z,99029.38
2022-08-16T10:00:42.174Z,99041.00
2022-08-16T10:03:24.417Z,99040.25
2022-08-16T10:06:22.101Z,99021.94
2022-08-16T10:09:25.515Z,99020.63
2022-08-16T10:12:42.960Z,99054.91
2022-08-16T10:15:33.572Z,99043.19
2022-08-16T10:19:00.292Z,99036.44
2022-08-16T10:21:29.094Z,99063.00
2022-08-16T10:24:33.895Z,99065.81
2022-08-16T10:27:46.083Z,99064.97
2022-08-16T10:31:11.839Z,99066.81
2022-08-16T10:34:30.758Z,99066.13
2022-08-16T10:37:32.665Z,99076.00
2022-08-16T10:40:29.097Z,99082.47
2022-08-16T10:43:50.487Z,99085.19
2022-08-16T10:49:32.984Z,99093.09
2022-08-16T10:52:18.729Z,99077.88
2022-08-16T10:58:23.664Z,99100.28
2022-08-16T11:01:43.411Z,99105.88
2022-08-16T11:07:53.777Z,99112.94
2022-08-16T11:11:05.415Z,99113.00
2022-08-16T11:14:11.050Z,99101.47
2022-08-16T11:17:10.698Z,99067.16
2022-08-16T11:20:41.990Z,99120.00
2022-08-16T11:23:35.002Z,99118.28
2022-08-16T11:26:23.632Z,99120.19
2022-08-16T11:29:30.160Z,99116.59
2022-08-16T11:32:31.196Z,99124.25
2022-08-16T11:38:55.675Z,99121.38
2022-08-16T11:42:07.661Z,99119.63
2022-08-16T11:45:19.471Z,99135.16
2022-08-16T11:48:11.105Z,99130.03
2022-08-16T11:50:59.276Z,99114.91
2022-08-16T11:56:57.046Z,99103.00
2022-08-16T11:59:51.273Z,99115.06
2022-08-16T12:02:32.595Z,99130.81
2022-08-16T12:05:15.524Z,99127.41
2022-08-16T12:08:05.267Z,99142.09
2022-08-16T12:10:59.358Z,99123.22
2022-08-16T12:16:48.806Z,99147.19
2022-08-16T12:19:46.184Z,99145.50
2022-08-16T12:22:27.914Z,99145.34
2022-08-16T12:31:22.462Z,99154.84
2022-08-16T12:34:02.914Z,99154.94
2022-08-16T12:36:43.681Z,99164.53
2022-08-16T12:39:22.450Z,99135.44
2022-08-16T12:42:08.455Z,99148.59
2022-08-16T12:44:55.980Z,99160.78
2022-08-16T12:48:15.895Z,99178.97
2022-08-16T12:50:58.736Z,99177.75
2022-08-16T12:54:03.643Z,99170.81
2022-08-16T12:56:47.414Z,99184.03
2022-08-16T12:59:38.545Z,99180.72
2022-08-16T13:02:33.772Z,99177.56
2022-08-16T13:05:25.797Z,99187.69
2022-08-16T13:07:59.056Z,99192.88
2022-08-16T13:10:52.564Z,99188.63
2022-08-16T13:13:34.650Z,99179.25
2022-08-16T13:16:35.356Z,99190.31
2022-08-16T13:19:25.267Z,99201.03
2022-08-16T13:22:18.686Z,99217.00
2022-08-16T13:25:07.375Z,99222.41
2022-08-16T13:28:14.638Z,99221.00
2022-08-16T13:31:08.063Z,99210.38
2022-08-16T13:33:58.521Z,99214.22
2022-08-16T13:36:48.655Z,99223.03
2022-08-16T13:39:27.921Z,99228.47
2022-08-16T13:42:29.958Z,99231.22
2022-08-16T13:45:06.952Z,99237.31
2022-08-16T13:47:45.330Z,99238.22
2022-08-16T13:50:51.323Z,99251.38
2022-08-16T13:53:42.269Z,99258.38
2022-08-16T13:56:39.708Z,99250.72
2022-08-16T13:59:21.312Z,99250.78
2022-08-16T14:02:08.670Z,99250.59
2022-08-16T14:04:59.580Z,99246.28
2022-08-16T14:08:07.341Z,99254.97
2022-08-16T14:10:49.048Z,99262.84
2022-08-16T14:13:38.040Z,99230.53
2022-08-16T14:16:33.602Z,99227.28
2022-08-16T14:19:23.396Z,99267.19
2022-08-16T14:22:31.436Z,99258.50
2022-08-16T14:25:20.261Z,99263.03
2022-08-16T14:28:10.617Z,99257.28
2022-08-16T14:30:56.245Z,99270.81
2022-08-16T14:33:41.961Z,99284.69
2022-08-16T14:36:35.038Z,99288.41
2022-08-16T14:39:32.269Z,99226.91
2022-08-16T14:42:36.811Z,99293.50
2022-08-16T14:48:30.781Z,99295.84
2022-08-16T14:51:32.813Z,99304.75
2022-08-16T14:54:11.222Z,99289.97
2022-08-16T14:56:54.898Z,99296.06
2022-08-16T14:59:46.323Z,99300.16
2022-08-16T15:02:40.543Z,99274.78
2022-08-16T15:05:26.514Z,99303.91
2022-08-16T15:08:11.565Z,99297.84
2022-08-16T15:10:53.057Z,99316.03
2022-08-16T15:13:35.729Z,99321.03
2022-08-16T15:16:18.217Z,99317.50
2022-08-16T15:19:05.142Z,99316.88
2022-08-16T15:21:55.514Z,99331.44
2022-08-16T15:24:44.684Z,99326.78
2022-08-16T15:27:35.853Z,99325.06
2022-08-16T15:30:58.410Z,99322.78
2022-08-16T15:33:58.356Z,99322.44
2022-08-16T15:37:07.991Z,99328.66
2022-08-16T15:39:56.108Z,99327.69
2022-08-16T15:42:54.146Z,99332.97
2022-08-16T15:45:59.683Z,99333.75
2022-08-16T15:48:40.689Z,99300.47
2022-08-16T15:51:22.648Z,99318.41
2022-08-16T15:57:10.973Z,99329.25
2022-08-16T16:00:05.012Z,99325.84
2022-08-16T16:02:59.985Z,99330.94
2022-08-16T16:05:46.396Z,99336.22
2022-08-16T16:08:31.475Z,99273.06
2022-08-16T16:11:40.218Z,99331.66
2022-08-16T16:14:35.051Z,99335.19
2022-08-16T16:17:22.153Z,99319.34
2022-08-16T16:20:17.129Z,99331.56
2022-08-16T16:22:53.555Z,99336.94
2022-08-16T16:25:39.393Z,99324.16
2022-08-16T16:29:05.799Z,99339.63
2022-08-16T16:31:28.202Z,99346.28
2022-08-16T16:34:12.244Z,99339.31
2022-08-16T16:36:57.095Z,99344.44
2022-08-16T16:39:48.585Z,99353.88
2022-08-16T16:42:49.051Z,99350.53
2022-08-16T16:45:55.145Z,99363.44
2022-08-16T16:48:49.925Z,99363.63
2022-08-16T16:51:40.745Z,99367.34
2022-08-16T16:54:22.480Z,99375.84
2022-08-16T17:00:29.703Z,99384.56
2022-08-16T17:03:25.289Z,99386.13
2022-08-16T17:06:09.407Z,99389.50
2022-08-16T17:08:52.548Z,99387.97
2022-08-16T17:11:37.391Z,99392.91
2022-08-16T17:17:22.847Z,99343.38
2022-08-16T17:20:29.077Z,99418.31
2022-08-16T17:23:09.205Z,99418.31
2022-08-16T17:25:52.354Z,99420.31
2022-08-16T17:28:58.256Z,99429.16
2022-08-16T17:31:41.084Z,99425.59
2022-08-16T17:34:30.226Z,99434.44
2022-08-16T17:37:22.122Z,99413.09
2022-08-16T17:40:41.117Z,99438.03
2022-08-16T17:43:21.426Z,99439.78
2022-08-16T17:46:41.350Z,99441.72
2022-08-16T17:49:26.170Z,99342.72
2022-08-16T17:52:17.619Z,99427.78
2022-08-16T17:55:09.150Z,99433.03
2022-08-16T17:57:52.294Z,99441.72
2022-08-16T18:00:34.112Z,99445.16
2022-08-16T18:04:02.481Z,99428.28
2022-08-16T18:09:25.562Z,99457.53
2022-08-16T18:12:50.840Z,99452.09
2022-08-16T18:15:34.199Z,99458.94
2022-08-16T18:18:29.565Z,99455.44
2022-08-16T18:21:36.209Z,99455.34
2022-08-16T18:24:22.071Z,99450.41
2022-08-16T18:27:05.338Z,99458.94
2022-08-16T18:30:20.602Z,99472.88
2022-08-16T18:33:15.559Z,99457.38
2022-08-16T18:36:20.807Z,99460.09
2022-08-16T18:39:06.874Z,99485.13
2022-08-16T18:42:06.381Z,99488.81
2022-08-16T18:44:53.981Z,99485.50
2022-08-16T18:47:55.919Z,99482.94
2022-08-16T18:53:32.392Z,99495.25
2022-08-16T18:56:53.812Z,99485.72
2022-08-16T18:59:51.880Z,99488.13
2022-08-16T19:02:58.512Z,99489.16
2022-08-16T19:05:42.230Z,99496.88
2022-08-16T19:08:22.114Z,99491.56
2022-08-16T19:11:16.580Z,99509.44
2022-08-16T19:14:08.606Z,99507.44
2022-08-16T19:16:57.494Z,99473.19
2022-08-16T19:23:02.007Z,99505.41
2022-08-16T19:25:53.110Z,99502.88
2022-08-16T19:28:58.145Z,99514.25
2022-08-16T19:31:54.366Z,99519.53
2022-08-16T19:34:34.891Z,99537.19
2022-08-16T19:37:10.472Z,99531.91
2022-08-16T19:40:36.992Z,99538.44
2022-08-16T19:43:06.799Z,99541.69
2022-08-16T19:46:04.164Z,99529.59
2022-08-16T19:48:45.154Z,99547.34
2022-08-16T19:51:23.179Z,99549.06
2022-08-16T19:54:00.449Z,99537.13
2022-08-16T19:57:09.740Z,99537.81
2022-08-16T20:00:12.036Z,99548.56
2022-08-16T20:03:05.464Z,99549.41
2022-08-16T20:05:46.165Z,99563.06
2022-08-16T20:08:31.976Z,99553.16
2022-08-16T20:11:10.078Z,99579.56
2022-08-16T20:13:55.708Z,99577.88
2022-08-16T20:16:32.342Z,99576.69
2022-08-16T20:19:20.228Z,99583.53
2022-08-16T20:22:09.086Z,99580.91
2022-08-16T20:24:45.925Z,99596.44
2022-08-16T20:30:59.125Z,99596.09
2022-08-16T20:33:38.437Z,99597.00
2022-08-16T20:36:16.063Z,99609.28
2022-08-16T20:39:00.781Z,99611.78
2022-08-16T20:41:41.563Z,99598.97
2022-08-16T20:44:36.846Z,99626.66
2022-08-16T20:47:25.264Z,99628.38
2022-08-16T20:50:08.323Z,99621.06
2022-08-16T20:52:54.924Z,99621.06
2022-08-16T20:55:43.717Z,99621.81
2022-08-16T20:58:29.809Z,99629.44
2022-08-16T21:01:16.375Z,99634.72
2022-08-16T21:04:00.612Z,99640.16
2022-08-16T21:07:03.054Z,99643.72
2022-08-16T21:09:49.548Z,99645.44
2022-08-16T21:12:37.848Z,99620.84
2022-08-16T21:15:15.036Z,99644.28
2022-08-16T21:17:57.547Z,99661.34
2022-08-16T21:20:44.996Z,99660.84
2022-08-16T21:26:55.589Z,99665.91
2022-08-16T21:32:34.947Z,99669.44
2022-08-16T21:35:21.392Z,99673.84
2022-08-16T21:38:28.876Z,99678.44
2022-08-16T21:41:27.241Z,99684.53
2022-08-16T21:44:38.578Z,99685.69
2022-08-16T21:47:27.376Z,99671.94
2022-08-16T21:50:11.748Z,99626.34
2022-08-16T21:52:50.162Z,99678.63
2022-08-16T21:55:40.084Z,99683.84
2022-08-16T21:58:53.187Z,99686.41
2022-08-16T22:01:40.983Z,99685.19
2022-08-16T22:04:39.121Z,99679.78
2022-08-16T22:07:30.364Z,99683.00
2022-08-16T22:11:06.477Z,99669.19
2022-08-16T22:16:40.311Z,99674.16
2022-08-16T22:19:17.829Z,99676.53
2022-08-16T22:22:01.836Z,99682.22
2022-08-16T22:24:41.557Z,99685.69
2022-08-16T22:27:31.115Z,99685.69
2022-08-16T22:30:13.793Z,99693.59
2022-08-16T22:33:10.673Z,99697.28
2022-08-16T22:36:04.509Z,99690.25
2022-08-16T22:38:57.447Z,99688.16
2022-08-16T22:41:41.010Z,99664.38
2022-08-16T22:44:32.577Z,99694.31
2022-08-16T22:47:46.860Z,99702.38
2022-08-16T22:50:38.176Z,99699.00
2022-08-16T22:53:32.385Z,99714.09
2022-08-16T22:56:21.721Z,99706.47
2022-08-16T22:59:02.619Z,99710.50
2022-08-16T23:01:41.697Z,99707.31
2022-08-16T23:04:29.051Z,99711.03
2022-08-16T23:07:21.221Z,99719.22
2022-08-16T23:10:18.020Z,99717.94
2022-08-16T23:13:05.262Z,99692.38
2022-08-16T23:15:56.590Z,99707.50
2022-08-16T23:18:40.947Z,99699.75
2022-08-16T23:21:35.641Z,99695.38
2022-08-16T23:24:56.000Z,99704.53
2022-08-16T23:27:54.664Z,99704.63
2022-08-16T23:30:38.949Z,99711.31
2022-08-16T23:33:43.531Z,99718.44
2022-08-16T23:36:24.349Z,99671.03
2022-08-16T23:39:33.091Z,99715.72
2022-08-16T23:42:12.121Z,99715.59
2022-08-16T23:44:59.247Z,99712.94
2022-08-16T23:47:46.130Z,99716.59
